sensor_id;sensor_type;location;lat;lon;timestamp;P1;durP1;ratioP1;P2;durP2;ratioP2
11771;SDS011;12556;55.748;13.194;2023-04-29T00:01:09;4.00;;;3.13;;
11771;SDS011;12556;55.748;13.194;2023-04-29T00:03:36;5.63;;;3.60;;
11771;SDS011;12556;55.748;13.194;2023-04-29T00:06:02;9.90;;;4.17;;
11771;SDS011;12556;55.748;13.194;2023-04-29T00:08:29;8.90;;;4.47;;
11771;SDS011;12556;55.748;13.194;2023-04-29T00:10:56;4.50;;;3.53;;
11771;SDS011;12556;55.748;13.194;2023-04-29T00:13:23;6.20;;;4.30;;
11771;SDS011;12556;55.748;13.194;2023-04-29T00:15:50;6.53;;;3.43;;
11771;SDS011;12556;55.748;13.194;2023-04-29T00:18:19;7.57;;;3.73;;
11771;SDS011;12556;55.748;13.194;2023-04-29T00:20:46;4.47;;;3.50;;
11771;SDS011;12556;55.748;13.194;2023-04-29T00:23:13;4.43;;;3.40;;
11771;SDS011;12556;55.748;13.194;2023-04-29T00:25:39;6.20;;;3.50;;
11771;SDS011;12556;55.748;13.194;2023-04-29T00:28:06;4.40;;;3.60;;
11771;SDS011;12556;55.748;13.194;2023-04-29T00:30:33;4.70;;;3.17;;
11771;SDS011;12556;55.748;13.194;2023-04-29T00:33:01;3.83;;;3.30;;
11771;SDS011;12556;55.748;13.194;2023-04-29T00:35:29;5.70;;;3.40;;
11771;SDS011;12556;55.748;13.194;2023-04-29T00:37:56;4.63;;;3.37;;
11771;SDS011;12556;55.748;13.194;2023-04-29T00:40:23;5.47;;;3.27;;
11771;SDS011;12556;55.748;13.194;2023-04-29T00:42:50;3.90;;;3.03;;
11771;SDS011;12556;55.748;13.194;2023-04-29T00:45:16;4.13;;;3.13;;
11771;SDS011;12556;55.748;13.194;2023-04-29T00:47:43;4.50;;;3.47;;
11771;SDS011;12556;55.748;13.194;2023-04-29T00:50:11;4.67;;;2.97;;
11771;SDS011;12556;55.748;13.194;2023-04-29T00:52:39;8.83;;;3.37;;
11771;SDS011;12556;55.748;13.194;2023-04-29T00:55:08;5.83;;;3.63;;
11771;SDS011;12556;55.748;13.194;2023-04-29T00:57:38;5.60;;;3.23;;
11771;SDS011;12556;55.748;13.194;2023-04-29T01:00:05;4.43;;;3.73;;
11771;SDS011;12556;55.748;13.194;2023-04-29T01:02:34;6.17;;;4.00;;
11771;SDS011;12556;55.748;13.194;2023-04-29T01:05:01;6.90;;;3.73;;
11771;SDS011;12556;55.748;13.194;2023-04-29T01:07:29;4.53;;;3.30;;
11771;SDS011;12556;55.748;13.194;2023-04-29T01:10:05;8.83;;;3.50;;
11771;SDS011;12556;55.748;13.194;2023-04-29T01:12:37;5.13;;;3.60;;
11771;SDS011;12556;55.748;13.194;2023-04-29T01:15:14;6.70;;;3.90;;
11771;SDS011;12556;55.748;13.194;2023-04-29T01:17:47;4.23;;;2.80;;
11771;SDS011;12556;55.748;13.194;2023-04-29T01:20:21;7.07;;;3.57;;
11771;SDS011;12556;55.748;13.194;2023-04-29T01:22:49;3.43;;;3.13;;
11771;SDS011;12556;55.748;13.194;2023-04-29T01:25:18;6.20;;;3.73;;
11771;SDS011;12556;55.748;13.194;2023-04-29T01:27:46;3.77;;;3.13;;
11771;SDS011;12556;55.748;13.194;2023-04-29T01:30:21;6.70;;;3.77;;
11771;SDS011;12556;55.748;13.194;2023-04-29T01:32:57;7.63;;;3.40;;
11771;SDS011;12556;55.748;13.194;2023-04-29T01:35:30;7.47;;;3.63;;
11771;SDS011;12556;55.748;13.194;2023-04-29T01:38:12;6.00;;;3.37;;
11771;SDS011;12556;55.748;13.194;2023-04-29T01:40:52;5.17;;;3.23;;
11771;SDS011;12556;55.748;13.194;2023-04-29T01:43:27;6.50;;;3.60;;
11771;SDS011;12556;55.748;13.194;2023-04-29T01:45:57;6.37;;;3.33;;
11771;SDS011;12556;55.748;13.194;2023-04-29T01:48:25;5.47;;;3.33;;
11771;SDS011;12556;55.748;13.194;2023-04-29T01:50:52;6.60;;;3.63;;
11771;SDS011;12556;55.748;13.194;2023-04-29T01:53:19;5.30;;;3.17;;
11771;SDS011;12556;55.748;13.194;2023-04-29T01:55:46;6.57;;;3.17;;
11771;SDS011;12556;55.748;13.194;2023-04-29T01:58:14;5.87;;;3.40;;
11771;SDS011;12556;55.748;13.194;2023-04-29T02:00:41;6.80;;;3.90;;
11771;SDS011;12556;55.748;13.194;2023-04-29T02:03:08;4.93;;;3.20;;
11771;SDS011;12556;55.748;13.194;2023-04-29T02:05:36;6.13;;;3.80;;
11771;SDS011;12556;55.748;13.194;2023-04-29T02:08:03;6.37;;;3.60;;
11771;SDS011;12556;55.748;13.194;2023-04-29T02:10:31;4.43;;;3.57;;
11771;SDS011;12556;55.748;13.194;2023-04-29T02:12:58;5.40;;;3.43;;
11771;SDS011;12556;55.748;13.194;2023-04-29T02:15:28;9.50;;;3.63;;
11771;SDS011;12556;55.748;13.194;2023-04-29T02:17:54;6.13;;;3.97;;
11771;SDS011;12556;55.748;13.194;2023-04-29T02:20:21;4.70;;;3.20;;
11771;SDS011;12556;55.748;13.194;2023-04-29T02:22:48;4.57;;;3.80;;
11771;SDS011;12556;55.748;13.194;2023-04-29T02:25:15;5.87;;;3.50;;
11771;SDS011;12556;55.748;13.194;2023-04-29T02:27:42;4.20;;;3.23;;
11771;SDS011;12556;55.748;13.194;2023-04-29T02:30:09;9.03;;;4.20;;
11771;SDS011;12556;55.748;13.194;2023-04-29T02:32:38;4.53;;;3.20;;
11771;SDS011;12556;55.748;13.194;2023-04-29T02:35:05;6.27;;;3.50;;
11771;SDS011;12556;55.748;13.194;2023-04-29T02:37:32;5.60;;;3.20;;
11771;SDS011;12556;55.748;13.194;2023-04-29T02:40:00;3.77;;;3.47;;
11771;SDS011;12556;55.748;13.194;2023-04-29T02:42:27;3.77;;;3.23;;
11771;SDS011;12556;55.748;13.194;2023-04-29T02:44:54;4.67;;;3.50;;
11771;SDS011;12556;55.748;13.194;2023-04-29T02:47:22;4.17;;;3.73;;
11771;SDS011;12556;55.748;13.194;2023-04-29T02:49:50;6.50;;;3.40;;
11771;SDS011;12556;55.748;13.194;2023-04-29T02:52:18;5.00;;;3.50;;
11771;SDS011;12556;55.748;13.194;2023-04-29T02:54:45;5.77;;;3.77;;
11771;SDS011;12556;55.748;13.194;2023-04-29T02:57:12;5.47;;;3.70;;
11771;SDS011;12556;55.748;13.194;2023-04-29T02:59:39;6.10;;;4.27;;
11771;SDS011;12556;55.748;13.194;2023-04-29T03:02:06;6.30;;;3.60;;
11771;SDS011;12556;55.748;13.194;2023-04-29T03:04:33;6.53;;;3.97;;
11771;SDS011;12556;55.748;13.194;2023-04-29T03:07:01;6.27;;;3.87;;
11771;SDS011;12556;55.748;13.194;2023-04-29T03:09:28;6.90;;;3.73;;
11771;SDS011;12556;55.748;13.194;2023-04-29T03:11:56;4.23;;;3.60;;
11771;SDS011;12556;55.748;13.194;2023-04-29T03:14:22;5.27;;;3.57;;
11771;SDS011;12556;55.748;13.194;2023-04-29T03:16:49;4.33;;;3.73;;
11771;SDS011;12556;55.748;13.194;2023-04-29T03:19:16;5.07;;;4.00;;
11771;SDS011;12556;55.748;13.194;2023-04-29T03:21:43;6.97;;;4.10;;
11771;SDS011;12556;55.748;13.194;2023-04-29T03:24:12;5.43;;;3.67;;
11771;SDS011;12556;55.748;13.194;2023-04-29T03:26:39;5.67;;;3.77;;
11771;SDS011;12556;55.748;13.194;2023-04-29T03:29:07;6.27;;;4.00;;
11771;SDS011;12556;55.748;13.194;2023-04-29T03:31:34;5.40;;;4.00;;
11771;SDS011;12556;55.748;13.194;2023-04-29T03:34:01;5.93;;;4.23;;
11771;SDS011;12556;55.748;13.194;2023-04-29T03:36:28;5.33;;;4.10;;
11771;SDS011;12556;55.748;13.194;2023-04-29T03:38:55;5.07;;;4.23;;
11771;SDS011;12556;55.748;13.194;2023-04-29T03:41:23;7.73;;;4.77;;
11771;SDS011;12556;55.748;13.194;2023-04-29T03:43:50;7.70;;;4.27;;
11771;SDS011;12556;55.748;13.194;2023-04-29T03:46:17;6.67;;;3.93;;
11771;SDS011;12556;55.748;13.194;2023-04-29T03:48:44;7.17;;;4.10;;
11771;SDS011;12556;55.748;13.194;2023-04-29T03:51:10;5.67;;;4.20;;
11771;SDS011;12556;55.748;13.194;2023-04-29T03:53:38;6.17;;;4.10;;
11771;SDS011;12556;55.748;13.194;2023-04-29T03:56:05;6.53;;;3.33;;
11771;SDS011;12556;55.748;13.194;2023-04-29T03:58:33;8.40;;;3.40;;
11771;SDS011;12556;55.748;13.194;2023-04-29T04:01:00;4.53;;;3.33;;
11771;SDS011;12556;55.748;13.194;2023-04-29T04:03:27;4.67;;;3.90;;
11771;SDS011;12556;55.748;13.194;2023-04-29T04:05:55;5.17;;;3.53;;
11771;SDS011;12556;55.748;13.194;2023-04-29T04:08:22;4.43;;;3.70;;
11771;SDS011;12556;55.748;13.194;2023-04-29T04:10:49;4.93;;;3.93;;
11771;SDS011;12556;55.748;13.194;2023-04-29T04:13:16;6.77;;;3.70;;
11771;SDS011;12556;55.748;13.194;2023-04-29T04:15:49;7.20;;;3.43;;
11771;SDS011;12556;55.748;13.194;2023-04-29T04:18:16;5.07;;;3.70;;
11771;SDS011;12556;55.748;13.194;2023-04-29T04:20:43;5.40;;;3.90;;
11771;SDS011;12556;55.748;13.194;2023-04-29T04:23:10;7.80;;;3.93;;
11771;SDS011;12556;55.748;13.194;2023-04-29T04:25:37;5.13;;;3.90;;
11771;SDS011;12556;55.748;13.194;2023-04-29T04:28:04;5.37;;;3.80;;
11771;SDS011;12556;55.748;13.194;2023-04-29T04:30:31;6.10;;;4.63;;
11771;SDS011;12556;55.748;13.194;2023-04-29T04:33:02;5.93;;;4.03;;
11771;SDS011;12556;55.748;13.194;2023-04-29T04:35:30;7.23;;;4.23;;
11771;SDS011;12556;55.748;13.194;2023-04-29T04:37:57;5.90;;;4.57;;
11771;SDS011;12556;55.748;13.194;2023-04-29T04:40:24;7.23;;;4.70;;
11771;SDS011;12556;55.748;13.194;2023-04-29T04:42:52;6.80;;;4.47;;
11771;SDS011;12556;55.748;13.194;2023-04-29T04:45:18;7.37;;;4.80;;
11771;SDS011;12556;55.748;13.194;2023-04-29T04:47:46;8.77;;;5.50;;
11771;SDS011;12556;55.748;13.194;2023-04-29T04:50:14;7.70;;;4.97;;
11771;SDS011;12556;55.748;13.194;2023-04-29T04:52:41;7.57;;;5.30;;
11771;SDS011;12556;55.748;13.194;2023-04-29T04:55:08;8.97;;;4.97;;
11771;SDS011;12556;55.748;13.194;2023-04-29T04:57:36;13.70;;;5.37;;
11771;SDS011;12556;55.748;13.194;2023-04-29T05:00:03;8.20;;;5.83;;
11771;SDS011;12556;55.748;13.194;2023-04-29T05:02:31;7.90;;;5.50;;
11771;SDS011;12556;55.748;13.194;2023-04-29T05:04:58;7.30;;;5.30;;
11771;SDS011;12556;55.748;13.194;2023-04-29T05:07:26;8.53;;;4.87;;
11771;SDS011;12556;55.748;13.194;2023-04-29T05:09:53;9.47;;;5.37;;
11771;SDS011;12556;55.748;13.194;2023-04-29T05:12:20;7.70;;;5.30;;
11771;SDS011;12556;55.748;13.194;2023-04-29T05:14:50;6.97;;;5.10;;
11771;SDS011;12556;55.748;13.194;2023-04-29T05:17:18;6.97;;;5.27;;
11771;SDS011;12556;55.748;13.194;2023-04-29T05:19:45;8.67;;;5.73;;
11771;SDS011;12556;55.748;13.194;2023-04-29T05:22:12;7.33;;;5.07;;
11771;SDS011;12556;55.748;13.194;2023-04-29T05:24:40;10.70;;;6.33;;
11771;SDS011;12556;55.748;13.194;2023-04-29T05:27:07;10.13;;;5.67;;
11771;SDS011;12556;55.748;13.194;2023-04-29T05:29:34;8.93;;;6.00;;
11771;SDS011;12556;55.748;13.194;2023-04-29T05:32:02;7.83;;;5.10;;
11771;SDS011;12556;55.748;13.194;2023-04-29T05:34:29;6.67;;;5.30;;
11771;SDS011;12556;55.748;13.194;2023-04-29T05:36:56;10.70;;;6.10;;
11771;SDS011;12556;55.748;13.194;2023-04-29T05:39:23;7.53;;;5.87;;
11771;SDS011;12556;55.748;13.194;2023-04-29T05:41:52;8.50;;;6.17;;
11771;SDS011;12556;55.748;13.194;2023-04-29T05:44:19;8.40;;;6.40;;
11771;SDS011;12556;55.748;13.194;2023-04-29T05:46:46;10.40;;;6.20;;
11771;SDS011;12556;55.748;13.194;2023-04-29T05:49:15;9.77;;;6.43;;
11771;SDS011;12556;55.748;13.194;2023-04-29T05:51:42;7.70;;;6.00;;
11771;SDS011;12556;55.748;13.194;2023-04-29T05:54:09;7.77;;;6.37;;
11771;SDS011;12556;55.748;13.194;2023-04-29T05:56:36;8.23;;;6.03;;
11771;SDS011;12556;55.748;13.194;2023-04-29T05:59:04;11.70;;;6.20;;
11771;SDS011;12556;55.748;13.194;2023-04-29T06:01:31;8.73;;;5.83;;
11771;SDS011;12556;55.748;13.194;2023-04-29T06:03:58;10.30;;;6.07;;
11771;SDS011;12556;55.748;13.194;2023-04-29T06:06:25;10.07;;;6.40;;
11771;SDS011;12556;55.748;13.194;2023-04-29T06:08:52;8.70;;;5.90;;
11771;SDS011;12556;55.748;13.194;2023-04-29T06:11:19;11.00;;;6.13;;
11771;SDS011;12556;55.748;13.194;2023-04-29T06:13:46;11.30;;;6.00;;
11771;SDS011;12556;55.748;13.194;2023-04-29T06:16:14;9.10;;;6.90;;
11771;SDS011;12556;55.748;13.194;2023-04-29T06:18:41;9.20;;;5.73;;
11771;SDS011;12556;55.748;13.194;2023-04-29T06:21:08;9.47;;;5.93;;
11771;SDS011;12556;55.748;13.194;2023-04-29T06:23:35;9.50;;;6.30;;
11771;SDS011;12556;55.748;13.194;2023-04-29T06:26:02;8.13;;;5.73;;
11771;SDS011;12556;55.748;13.194;2023-04-29T06:28:29;8.43;;;5.43;;
11771;SDS011;12556;55.748;13.194;2023-04-29T06:30:55;6.10;;;5.23;;
11771;SDS011;12556;55.748;13.194;2023-04-29T06:33:24;8.67;;;5.47;;
11771;SDS011;12556;55.748;13.194;2023-04-29T06:35:51;8.77;;;5.63;;
11771;SDS011;12556;55.748;13.194;2023-04-29T06:38:17;6.77;;;5.07;;
11771;SDS011;12556;55.748;13.194;2023-04-29T06:40:44;13.37;;;5.80;;
11771;SDS011;12556;55.748;13.194;2023-04-29T06:43:11;7.97;;;5.00;;
11771;SDS011;12556;55.748;13.194;2023-04-29T06:45:38;6.73;;;5.00;;
11771;SDS011;12556;55.748;13.194;2023-04-29T06:48:05;5.77;;;4.73;;
11771;SDS011;12556;55.748;13.194;2023-04-29T06:50:33;6.67;;;4.73;;
11771;SDS011;12556;55.748;13.194;2023-04-29T06:53:00;8.37;;;4.47;;
11771;SDS011;12556;55.748;13.194;2023-04-29T06:55:27;8.37;;;5.00;;
11771;SDS011;12556;55.748;13.194;2023-04-29T06:57:54;7.83;;;4.80;;
11771;SDS011;12556;55.748;13.194;2023-04-29T07:00:21;8.00;;;4.70;;
11771;SDS011;12556;55.748;13.194;2023-04-29T07:02:48;6.80;;;4.77;;
11771;SDS011;12556;55.748;13.194;2023-04-29T07:05:15;8.53;;;5.03;;
11771;SDS011;12556;55.748;13.194;2023-04-29T07:07:45;5.90;;;4.40;;
11771;SDS011;12556;55.748;13.194;2023-04-29T07:10:12;6.17;;;3.80;;
11771;SDS011;12556;55.748;13.194;2023-04-29T07:12:38;4.13;;;3.60;;
11771;SDS011;12556;55.748;13.194;2023-04-29T07:15:06;5.93;;;3.73;;
11771;SDS011;12556;55.748;13.194;2023-04-29T07:17:33;5.90;;;3.57;;
11771;SDS011;12556;55.748;13.194;2023-04-29T07:20:00;4.33;;;3.33;;
11771;SDS011;12556;55.748;13.194;2023-04-29T07:22:28;5.93;;;3.80;;
11771;SDS011;12556;55.748;13.194;2023-04-29T07:24:56;7.17;;;3.80;;
11771;SDS011;12556;55.748;13.194;2023-04-29T07:27:23;3.97;;;3.50;;
11771;SDS011;12556;55.748;13.194;2023-04-29T07:29:50;8.67;;;3.90;;
11771;SDS011;12556;55.748;13.194;2023-04-29T07:32:17;5.97;;;3.90;;
11771;SDS011;12556;55.748;13.194;2023-04-29T07:34:44;3.57;;;3.03;;
11771;SDS011;12556;55.748;13.194;2023-04-29T07:37:11;6.37;;;3.10;;
11771;SDS011;12556;55.748;13.194;2023-04-29T07:39:38;5.17;;;2.73;;
11771;SDS011;12556;55.748;13.194;2023-04-29T07:42:08;3.23;;;2.50;;
11771;SDS011;12556;55.748;13.194;2023-04-29T07:44:34;3.43;;;2.63;;
11771;SDS011;12556;55.748;13.194;2023-04-29T07:47:01;3.83;;;3.00;;
11771;SDS011;12556;55.748;13.194;2023-04-29T07:49:28;4.63;;;2.60;;
11771;SDS011;12556;55.748;13.194;2023-04-29T07:51:55;4.13;;;2.57;;
11771;SDS011;12556;55.748;13.194;2023-04-29T07:54:22;5.33;;;2.80;;
11771;SDS011;12556;55.748;13.194;2023-04-29T07:56:49;3.85;;;2.97;;
11771;SDS011;12556;55.748;13.194;2023-04-29T07:59:17;2.70;;;2.40;;
11771;SDS011;12556;55.748;13.194;2023-04-29T08:01:44;4.10;;;2.63;;
11771;SDS011;12556;55.748;13.194;2023-04-29T08:04:11;4.30;;;2.70;;
11771;SDS011;12556;55.748;13.194;2023-04-29T08:06:38;4.75;;;2.30;;
11771;SDS011;12556;55.748;13.194;2023-04-29T08:09:05;2.90;;;2.30;;
11771;SDS011;12556;55.748;13.194;2023-04-29T08:11:32;5.20;;;2.33;;
11771;SDS011;12556;55.748;13.194;2023-04-29T08:13:59;2.42;;;2.20;;
11771;SDS011;12556;55.748;13.194;2023-04-29T08:16:28;4.00;;;2.40;;
11771;SDS011;12556;55.748;13.194;2023-04-29T08:18:55;4.35;;;2.35;;
11771;SDS011;12556;55.748;13.194;2023-04-29T08:21:22;2.75;;;2.03;;
11771;SDS011;12556;55.748;13.194;2023-04-29T08:23:49;4.28;;;2.65;;
11771;SDS011;12556;55.748;13.194;2023-04-29T08:26:17;6.43;;;2.35;;
11771;SDS011;12556;55.748;13.194;2023-04-29T08:28:45;3.90;;;2.63;;
11771;SDS011;12556;55.748;13.194;2023-04-29T08:31:15;4.78;;;2.75;;
11771;SDS011;12556;55.748;13.194;2023-04-29T08:33:43;5.22;;;3.05;;
11771;SDS011;12556;55.748;13.194;2023-04-29T08:36:10;3.90;;;3.28;;
11771;SDS011;12556;55.748;13.194;2023-04-29T08:38:38;6.03;;;3.30;;
11771;SDS011;12556;55.748;13.194;2023-04-29T08:41:06;4.65;;;3.60;;
11771;SDS011;12556;55.748;13.194;2023-04-29T08:43:33;4.35;;;2.78;;
11771;SDS011;12556;55.748;13.194;2023-04-29T08:46:01;3.97;;;2.90;;
11771;SDS011;12556;55.748;13.194;2023-04-29T08:48:28;4.57;;;3.33;;
11771;SDS011;12556;55.748;13.194;2023-04-29T08:50:57;3.60;;;2.80;;
11771;SDS011;12556;55.748;13.194;2023-04-29T08:53:25;4.93;;;2.88;;
11771;SDS011;12556;55.748;13.194;2023-04-29T08:55:52;3.75;;;2.80;;
11771;SDS011;12556;55.748;13.194;2023-04-29T08:58:20;5.68;;;3.03;;
11771;SDS011;12556;55.748;13.194;2023-04-29T09:00:47;4.22;;;2.80;;
11771;SDS011;12556;55.748;13.194;2023-04-29T09:03:17;5.22;;;2.60;;
11771;SDS011;12556;55.748;13.194;2023-04-29T09:05:52;6.90;;;3.53;;
11771;SDS011;12556;55.748;13.194;2023-04-29T09:08:22;4.05;;;3.38;;
11771;SDS011;12556;55.748;13.194;2023-04-29T09:10:49;3.67;;;3.00;;
11771;SDS011;12556;55.748;13.194;2023-04-29T09:13:23;3.25;;;2.95;;
11771;SDS011;12556;55.748;13.194;2023-04-29T09:15:51;3.58;;;3.20;;
11771;SDS011;12556;55.748;13.194;2023-04-29T09:21:11;6.82;;;3.80;;
11771;SDS011;12556;55.748;13.194;2023-04-29T09:23:41;4.32;;;3.13;;
11771;SDS011;12556;55.748;13.194;2023-04-29T09:26:09;9.13;;;3.80;;
11771;SDS011;12556;55.748;13.194;2023-04-29T09:28:36;7.32;;;3.70;;
11771;SDS011;12556;55.748;13.194;2023-04-29T09:31:05;4.00;;;3.42;;
11771;SDS011;12556;55.748;13.194;2023-04-29T09:33:47;4.20;;;3.60;;
11771;SDS011;12556;55.748;13.194;2023-04-29T09:36:18;5.22;;;4.00;;
11771;SDS011;12556;55.748;13.194;2023-04-29T09:39:06;5.63;;;4.10;;
11771;SDS011;12556;55.748;13.194;2023-04-29T09:41:40;7.63;;;4.10;;
11771;SDS011;12556;55.748;13.194;2023-04-29T09:44:09;5.82;;;4.35;;
11771;SDS011;12556;55.748;13.194;2023-04-29T09:46:36;5.00;;;3.97;;
11771;SDS011;12556;55.748;13.194;2023-04-29T09:49:03;7.70;;;4.35;;
11771;SDS011;12556;55.748;13.194;2023-04-29T09:51:50;4.55;;;3.80;;
11771;SDS011;12556;55.748;13.194;2023-04-29T09:54:20;4.75;;;4.25;;
11771;SDS011;12556;55.748;13.194;2023-04-29T09:56:48;4.47;;;3.42;;
11771;SDS011;12556;55.748;13.194;2023-04-29T09:59:16;5.15;;;4.10;;
11771;SDS011;12556;55.748;13.194;2023-04-29T10:01:43;5.63;;;4.00;;
11771;SDS011;12556;55.748;13.194;2023-04-29T10:04:13;3.58;;;3.25;;
11771;SDS011;12556;55.748;13.194;2023-04-29T10:06:41;6.20;;;3.55;;
11771;SDS011;12556;55.748;13.194;2023-04-29T10:09:12;4.60;;;3.95;;
11771;SDS011;12556;55.748;13.194;2023-04-29T10:11:42;6.03;;;4.03;;
11771;SDS011;12556;55.748;13.194;2023-04-29T10:14:11;5.00;;;3.60;;
11771;SDS011;12556;55.748;13.194;2023-04-29T10:16:44;4.78;;;4.22;;
11771;SDS011;12556;55.748;13.194;2023-04-29T10:19:14;4.63;;;3.55;;
11771;SDS011;12556;55.748;13.194;2023-04-29T10:21:48;5.13;;;3.90;;
11771;SDS011;12556;55.748;13.194;2023-04-29T10:24:16;6.47;;;4.10;;
11771;SDS011;12556;55.748;13.194;2023-04-29T10:26:45;5.03;;;3.90;;
11771;SDS011;12556;55.748;13.194;2023-04-29T10:29:14;5.97;;;4.13;;
11771;SDS011;12556;55.748;13.194;2023-04-29T10:31:43;4.95;;;4.13;;
11771;SDS011;12556;55.748;13.194;2023-04-29T10:34:14;5.03;;;3.92;;
11771;SDS011;12556;55.748;13.194;2023-04-29T10:36:42;5.57;;;4.20;;
11771;SDS011;12556;55.748;13.194;2023-04-29T10:39:11;4.68;;;4.10;;
11771;SDS011;12556;55.748;13.194;2023-04-29T10:41:49;5.57;;;4.20;;
11771;SDS011;12556;55.748;13.194;2023-04-29T10:44:17;5.72;;;4.40;;
11771;SDS011;12556;55.748;13.194;2023-04-29T10:46:44;9.52;;;4.15;;
11771;SDS011;12556;55.748;13.194;2023-04-29T10:49:11;6.43;;;4.45;;
11771;SDS011;12556;55.748;13.194;2023-04-29T10:51:38;5.65;;;4.13;;
11771;SDS011;12556;55.748;13.194;2023-04-29T10:54:07;8.00;;;4.45;;
11771;SDS011;12556;55.748;13.194;2023-04-29T10:56:39;5.25;;;4.00;;
11771;SDS011;12556;55.748;13.194;2023-04-29T10:59:12;5.50;;;4.47;;
11771;SDS011;12556;55.748;13.194;2023-04-29T11:01:41;8.18;;;4.18;;
11771;SDS011;12556;55.748;13.194;2023-04-29T11:04:09;5.75;;;3.88;;
11771;SDS011;12556;55.748;13.194;2023-04-29T11:06:37;9.43;;;4.78;;
11771;SDS011;12556;55.748;13.194;2023-04-29T11:09:18;5.30;;;4.00;;
11771;SDS011;12556;55.748;13.194;2023-04-29T11:11:47;4.78;;;4.32;;
11771;SDS011;12556;55.748;13.194;2023-04-29T11:14:24;4.70;;;4.30;;
11771;SDS011;12556;55.748;13.194;2023-04-29T11:16:52;5.32;;;4.15;;
11771;SDS011;12556;55.748;13.194;2023-04-29T11:19:22;4.90;;;4.13;;
11771;SDS011;12556;55.748;13.194;2023-04-29T11:22:02;4.65;;;3.67;;
11771;SDS011;12556;55.748;13.194;2023-04-29T11:24:34;5.47;;;4.13;;
11771;SDS011;12556;55.748;13.194;2023-04-29T11:27:01;5.80;;;4.20;;
11771;SDS011;12556;55.748;13.194;2023-04-29T11:29:31;6.60;;;4.40;;
11771;SDS011;12556;55.748;13.194;2023-04-29T11:31:58;4.93;;;3.83;;
11771;SDS011;12556;55.748;13.194;2023-04-29T11:34:26;4.30;;;3.90;;
11771;SDS011;12556;55.748;13.194;2023-04-29T11:36:53;5.32;;;3.95;;
11771;SDS011;12556;55.748;13.194;2023-04-29T11:39:20;4.38;;;3.80;;
11771;SDS011;12556;55.748;13.194;2023-04-29T11:41:48;5.13;;;4.47;;
11771;SDS011;12556;55.748;13.194;2023-04-29T11:44:15;4.65;;;4.05;;
11771;SDS011;12556;55.748;13.194;2023-04-29T11:46:49;4.75;;;3.90;;
11771;SDS011;12556;55.748;13.194;2023-04-29T11:49:16;7.22;;;4.40;;
11771;SDS011;12556;55.748;13.194;2023-04-29T11:51:43;4.78;;;3.80;;
11771;SDS011;12556;55.748;13.194;2023-04-29T11:54:10;4.13;;;3.83;;
11771;SDS011;12556;55.748;13.194;2023-04-29T11:56:36;5.50;;;3.85;;
11771;SDS011;12556;55.748;13.194;2023-04-29T11:59:03;5.60;;;3.70;;
11771;SDS011;12556;55.748;13.194;2023-04-29T12:01:32;5.88;;;4.20;;
11771;SDS011;12556;55.748;13.194;2023-04-29T12:04:00;4.38;;;3.25;;
11771;SDS011;12556;55.748;13.194;2023-04-29T12:06:29;4.35;;;3.95;;
11771;SDS011;12556;55.748;13.194;2023-04-29T12:08:57;6.00;;;4.05;;
11771;SDS011;12556;55.748;13.194;2023-04-29T12:11:24;5.15;;;4.00;;
11771;SDS011;12556;55.748;13.194;2023-04-29T12:13:52;4.88;;;3.75;;
11771;SDS011;12556;55.748;13.194;2023-04-29T12:16:19;4.35;;;3.95;;
11771;SDS011;12556;55.748;13.194;2023-04-29T12:18:48;4.10;;;3.58;;
11771;SDS011;12556;55.748;13.194;2023-04-29T12:21:16;6.10;;;3.42;;
11771;SDS011;12556;55.748;13.194;2023-04-29T12:23:44;3.78;;;3.47;;
11771;SDS011;12556;55.748;13.194;2023-04-29T12:26:11;5.25;;;3.25;;
11771;SDS011;12556;55.748;13.194;2023-04-29T12:28:39;4.80;;;3.28;;
11771;SDS011;12556;55.748;13.194;2023-04-29T12:31:07;5.10;;;3.75;;
11771;SDS011;12556;55.748;13.194;2023-04-29T12:33:35;5.05;;;3.58;;
11771;SDS011;12556;55.748;13.194;2023-04-29T12:36:02;8.57;;;4.07;;
11771;SDS011;12556;55.748;13.194;2023-04-29T12:38:30;7.75;;;4.40;;
11771;SDS011;12556;55.748;13.194;2023-04-29T12:40:58;8.55;;;4.20;;
11771;SDS011;12556;55.748;13.194;2023-04-29T12:43:26;6.43;;;4.90;;
11771;SDS011;12556;55.748;13.194;2023-04-29T12:45:53;8.00;;;4.80;;
11771;SDS011;12556;55.748;13.194;2023-04-29T12:48:28;5.45;;;4.93;;
11771;SDS011;12556;55.748;13.194;2023-04-29T12:50:56;6.47;;;5.40;;
11771;SDS011;12556;55.748;13.194;2023-04-29T12:53:24;8.43;;;5.40;;
11771;SDS011;12556;55.748;13.194;2023-04-29T12:55:52;8.32;;;5.53;;
11771;SDS011;12556;55.748;13.194;2023-04-29T12:58:19;8.93;;;5.70;;
11771;SDS011;12556;55.748;13.194;2023-04-29T13:00:46;7.40;;;4.90;;
11771;SDS011;12556;55.748;13.194;2023-04-29T13:03:13;6.07;;;5.20;;
11771;SDS011;12556;55.748;13.194;2023-04-29T13:05:40;6.05;;;4.88;;
11771;SDS011;12556;55.748;13.194;2023-04-29T13:08:08;7.65;;;5.25;;
11771;SDS011;12556;55.748;13.194;2023-04-29T13:10:34;7.70;;;4.53;;
11771;SDS011;12556;55.748;13.194;2023-04-29T13:13:03;8.38;;;4.30;;
11771;SDS011;12556;55.748;13.194;2023-04-29T13:15:30;5.93;;;4.22;;
11771;SDS011;12556;55.748;13.194;2023-04-29T13:17:58;8.40;;;3.90;;
11771;SDS011;12556;55.748;13.194;2023-04-29T13:20:26;5.65;;;3.75;;
11771;SDS011;12556;55.748;13.194;2023-04-29T13:22:53;5.78;;;3.30;;
11771;SDS011;12556;55.748;13.194;2023-04-29T13:25:20;4.93;;;3.20;;
11771;SDS011;12556;55.748;13.194;2023-04-29T13:27:47;5.28;;;3.45;;
11771;SDS011;12556;55.748;13.194;2023-04-29T13:30:15;4.40;;;3.55;;
11771;SDS011;12556;55.748;13.194;2023-04-29T13:32:42;7.82;;;4.22;;
11771;SDS011;12556;55.748;13.194;2023-04-29T13:35:09;9.77;;;4.50;;
11771;SDS011;12556;55.748;13.194;2023-04-29T13:37:36;7.03;;;4.55;;
11771;SDS011;12556;55.748;13.194;2023-04-29T13:40:03;6.82;;;4.95;;
11771;SDS011;12556;55.748;13.194;2023-04-29T13:42:31;4.32;;;3.92;;
11771;SDS011;12556;55.748;13.194;2023-04-29T13:44:58;7.87;;;4.13;;
11771;SDS011;12556;55.748;13.194;2023-04-29T13:47:26;5.60;;;4.20;;
11771;SDS011;12556;55.748;13.194;2023-04-29T13:49:53;4.63;;;4.10;;
11771;SDS011;12556;55.748;13.194;2023-04-29T13:52:20;4.77;;;3.77;;
11771;SDS011;12556;55.748;13.194;2023-04-29T13:54:47;7.30;;;3.43;;
11771;SDS011;12556;55.748;13.194;2023-04-29T13:57:14;5.83;;;3.20;;
11771;SDS011;12556;55.748;13.194;2023-04-29T13:59:41;3.67;;;2.60;;
11771;SDS011;12556;55.748;13.194;2023-04-29T14:02:08;3.77;;;3.20;;
11771;SDS011;12556;55.748;13.194;2023-04-29T14:04:39;4.63;;;3.00;;
11771;SDS011;12556;55.748;13.194;2023-04-29T14:07:06;2.43;;;2.20;;
11771;SDS011;12556;55.748;13.194;2023-04-29T14:09:33;2.43;;;1.90;;
11771;SDS011;12556;55.748;13.194;2023-04-29T14:12:00;2.40;;;2.20;;
11771;SDS011;12556;55.748;13.194;2023-04-29T14:14:27;3.93;;;2.00;;
11771;SDS011;12556;55.748;13.194;2023-04-29T14:16:53;4.03;;;2.07;;
11771;SDS011;12556;55.748;13.194;2023-04-29T14:19:20;2.43;;;1.83;;
11771;SDS011;12556;55.748;13.194;2023-04-29T14:21:49;2.80;;;1.77;;
11771;SDS011;12556;55.748;13.194;2023-04-29T14:24:16;4.00;;;1.87;;
11771;SDS011;12556;55.748;13.194;2023-04-29T14:26:42;2.20;;;1.70;;
11771;SDS011;12556;55.748;13.194;2023-04-29T14:29:09;5.72;;;1.90;;
11771;SDS011;12556;55.748;13.194;2023-04-29T14:31:36;7.20;;;1.93;;
11771;SDS011;12556;55.748;13.194;2023-04-29T14:34:03;4.77;;;1.97;;
11771;SDS011;12556;55.748;13.194;2023-04-29T14:36:30;4.40;;;1.90;;
11771;SDS011;12556;55.748;13.194;2023-04-29T14:38:59;3.40;;;2.10;;
11771;SDS011;12556;55.748;13.194;2023-04-29T14:41:27;5.43;;;1.83;;